DAL430 KLAX-KMSP
Flight info
| Callsign | DAL430 |
|---|---|
| Flight time | N/A |
| Altitude | 35000 |
| Route | ORCKA5 LAS BAWER LARVE EKR/N0450F370 BFF SSWAN TORGY4 |
| Aircraft | A320/M-SDE3FGHIRWY/LB1 |
Departure
| Time | 2026-05-08 06:48 |
|---|---|
| Airport | Los Angeles International Airport (KLAX) |
Arrival
| Time | N/A |
|---|---|
| Airport | Minneapolis–Saint Paul International Airport / Wold–Chamberlain Field (KMSP) |
| Time | Latitude | Longitude | Altitude | Speed | Heading |
|---|---|---|---|---|---|
| 2026-05-08 06:18 | 33.94665 | -118.40844 | 110 ft | 0 kts | 119° |
| 2026-05-08 06:20 | 33.94671 | -118.40841 | 96 ft | 0 kts | 119° |
| 2026-05-08 06:37 | 33.94673 | -118.40846 | 95 ft | 2 kts | 119° |
| 2026-05-08 06:37 | 33.94681 | -118.40864 | 97 ft | 2 kts | 119° |
| 2026-05-08 06:37 | 33.94689 | -118.40882 | 96 ft | 3 kts | 97° |
| 2026-05-08 06:37 | 33.94688 | -118.40900 | 95 ft | 3 kts | 29° |
| 2026-05-08 06:38 | 33.94670 | -118.40905 | 94 ft | 3 kts | 356° |
| 2026-05-08 06:38 | 33.94654 | -118.40903 | 94 ft | 1 kts | 353° |
| 2026-05-08 06:38 | 33.94661 | -118.40904 | 94 ft | 3 kts | 353° |
| 2026-05-08 06:38 | 33.94678 | -118.40906 | 95 ft | 1 kts | 353° |
| 2026-05-08 06:39 | 33.94680 | -118.40907 | 95 ft | 0 kts | 353° |
| 2026-05-08 06:43 | 33.94706 | -118.40910 | 96 ft | 8 kts | 354° |
| 2026-05-08 06:43 | 33.94748 | -118.40890 | 97 ft | 6 kts | 50° |
| 2026-05-08 06:43 | 33.94758 | -118.40854 | 98 ft | 4 kts | 80° |
| 2026-05-08 06:43 | 33.94761 | -118.40825 | 97 ft | 4 kts | 83° |
| 2026-05-08 06:44 | 33.94768 | -118.40727 | 96 ft | 15 kts | 85° |
| 2026-05-08 06:44 | 33.94788 | -118.40616 | 96 ft | 12 kts | 52° |
| 2026-05-08 06:44 | 33.94850 | -118.40601 | 99 ft | 6 kts | 15° |
| 2026-05-08 06:44 | 33.94866 | -118.40572 | 100 ft | 4 kts | 70° |
| 2026-05-08 06:45 | 33.94879 | -118.40449 | 102 ft | 21 kts | 82° |
| 2026-05-08 06:45 | 33.94902 | -118.40268 | 100 ft | 22 kts | 80° |
| 2026-05-08 06:45 | 33.94917 | -118.40082 | 100 ft | 20 kts | 84° |
| 2026-05-08 06:45 | 33.94933 | -118.39955 | 100 ft | 13 kts | 73° |
| 2026-05-08 06:46 | 33.94955 | -118.39921 | 102 ft | 0 kts | 34° |
| 2026-05-08 06:47 | 33.94967 | -118.39913 | 103 ft | 6 kts | 25° |
| 2026-05-08 06:47 | 33.95029 | -118.39934 | 108 ft | 14 kts | 317° |
| 2026-05-08 06:47 | 33.95030 | -118.40077 | 109 ft | 22 kts | 263° |
| 2026-05-08 06:47 | 33.94991 | -118.40432 | 109 ft | 76 kts | 263° |
| 2026-05-08 06:48 | 33.94900 | -118.41322 | 109 ft | 136 kts | 263° |
| 2026-05-08 06:48 | 33.94763 | -118.42624 | 218 ft | 172 kts | 261° |
| 2026-05-08 06:48 | 33.94602 | -118.44082 | 798 ft | 178 kts | 261° |
| 2026-05-08 06:48 | 33.94450 | -118.45564 | 1525 ft | 178 kts | 263° |
| 2026-05-08 06:49 | 33.94256 | -118.47050 | 2076 ft | 186 kts | 248° |
| 2026-05-08 06:49 | 33.93359 | -118.48221 | 2307 ft | 204 kts | 201° |
| 2026-05-08 06:49 | 33.91905 | -118.48284 | 2528 ft | 225 kts | 158° |
| 2026-05-08 06:49 | 33.90667 | -118.47040 | 2849 ft | 246 kts | 117° |
| 2026-05-08 06:50 | 33.90317 | -118.44988 | 3288 ft | 261 kts | 79° |
| 2026-05-08 06:50 | 33.91084 | -118.43022 | 3930 ft | 265 kts | 43° |
| 2026-05-08 06:50 | 33.92641 | -118.41869 | 4686 ft | 266 kts | 20° |
| 2026-05-08 06:50 | 33.94309 | -118.40878 | 5468 ft | 271 kts | 34° |
| 2026-05-08 06:51 | 33.95618 | -118.39214 | 6191 ft | 280 kts | 53° |
| 2026-05-08 06:51 | 33.96727 | -118.37264 | 6921 ft | 283 kts | 54° |
| 2026-05-08 06:51 | 33.97844 | -118.35285 | 7654 ft | 287 kts | 54° |
| 2026-05-08 06:51 | 33.98972 | -118.33284 | 8405 ft | 290 kts | 54° |
| 2026-05-08 06:52 | 34.00111 | -118.31264 | 9153 ft | 293 kts | 54° |
| 2026-05-08 06:52 | 34.01252 | -118.29246 | 9899 ft | 296 kts | 55° |
| 2026-05-08 06:52 | 34.02432 | -118.27163 | 10339 ft | 310 kts | 55° |
| 2026-05-08 06:52 | 34.03712 | -118.24904 | 10495 ft | 334 kts | 55° |
| 2026-05-08 06:53 | 34.05068 | -118.22518 | 10656 ft | 355 kts | 55° |
| 2026-05-08 06:53 | 34.06479 | -118.20036 | 11155 ft | 362 kts | 55° |
| 2026-05-08 06:53 | 34.07890 | -118.17551 | 11797 ft | 364 kts | 55° |
| 2026-05-08 06:53 | 34.09323 | -118.15020 | 12473 ft | 366 kts | 56° |
| 2026-05-08 06:54 | 34.10762 | -118.12467 | 13158 ft | 368 kts | 56° |
| 2026-05-08 06:54 | 34.12205 | -118.09903 | 13828 ft | 370 kts | 56° |
| 2026-05-08 06:54 | 34.13657 | -118.07329 | 14410 ft | 372 kts | 56° |
| 2026-05-08 06:54 | 34.15121 | -118.04734 | 14982 ft | 375 kts | 56° |
| 2026-05-08 06:55 | 34.16596 | -118.02119 | 15543 ft | 378 kts | 55° |
| 2026-05-08 06:55 | 34.18083 | -117.99476 | 16105 ft | 381 kts | 55° |
| 2026-05-08 06:55 | 34.19583 | -117.96808 | 16667 ft | 385 kts | 55° |
| 2026-05-08 06:55 | 34.21091 | -117.94120 | 17218 ft | 388 kts | 55° |
| 2026-05-08 06:56 | 34.22610 | -117.91411 | 17785 ft | 391 kts | 55° |
| 2026-05-08 06:56 | 34.24143 | -117.88680 | 18344 ft | 395 kts | 55° |
| 2026-05-08 06:56 | 34.25689 | -117.85922 | 18838 ft | 398 kts | 55° |
| 2026-05-08 06:56 | 34.27248 | -117.83139 | 19330 ft | 400 kts | 55° |
| 2026-05-08 06:57 | 34.28793 | -117.80378 | 19799 ft | 403 kts | 55° |
| 2026-05-08 06:57 | 34.30373 | -117.77554 | 20286 ft | 406 kts | 55° |
| 2026-05-08 06:57 | 34.31961 | -117.74717 | 20758 ft | 409 kts | 55° |
| 2026-05-08 06:57 | 34.33559 | -117.71855 | 21224 ft | 411 kts | 55° |
| 2026-05-08 06:58 | 34.35165 | -117.68974 | 21666 ft | 414 kts | 55° |
| 2026-05-08 06:58 | 34.36814 | -117.66101 | 22099 ft | 417 kts | 54° |
| 2026-05-08 06:58 | 34.38519 | -117.63233 | 22525 ft | 420 kts | 53° |
| 2026-05-08 06:58 | 34.40254 | -117.60368 | 22965 ft | 422 kts | 53° |
| 2026-05-08 06:59 | 34.42002 | -117.57496 | 23389 ft | 425 kts | 53° |
| 2026-05-08 06:59 | 34.43744 | -117.54624 | 23774 ft | 428 kts | 53° |
| 2026-05-08 06:59 | 34.45504 | -117.51701 | 24117 ft | 430 kts | 53° |
| 2026-05-08 06:59 | 34.47266 | -117.48755 | 24459 ft | 432 kts | 53° |
| 2026-05-08 07:00 | 34.49028 | -117.45794 | 24791 ft | 434 kts | 53° |
| 2026-05-08 07:00 | 34.50795 | -117.42815 | 25140 ft | 436 kts | 53° |
| 2026-05-08 07:00 | 34.52569 | -117.39819 | 25465 ft | 437 kts | 53° |
| 2026-05-08 07:00 | 34.54347 | -117.36816 | 25781 ft | 439 kts | 53° |
| 2026-05-08 07:01 | 34.56134 | -117.33800 | 26091 ft | 441 kts | 53° |
| 2026-05-08 07:01 | 34.57930 | -117.30767 | 26395 ft | 443 kts | 53° |
| 2026-05-08 07:01 | 34.59710 | -117.27761 | 26690 ft | 445 kts | 53° |
| 2026-05-08 07:01 | 34.61517 | -117.24709 | 26970 ft | 446 kts | 53° |
| 2026-05-08 07:02 | 34.63332 | -117.21642 | 27238 ft | 448 kts | 53° |
| 2026-05-08 07:02 | 34.65152 | -117.18561 | 27499 ft | 449 kts | 53° |
| 2026-05-08 07:02 | 34.66975 | -117.15468 | 27753 ft | 451 kts | 53° |
| 2026-05-08 07:02 | 34.68802 | -117.12362 | 28005 ft | 452 kts | 53° |
| 2026-05-08 07:03 | 34.70631 | -117.09246 | 28243 ft | 454 kts | 53° |
| 2026-05-08 07:03 | 34.72467 | -117.06117 | 28452 ft | 455 kts | 53° |
| 2026-05-08 07:03 | 34.73692 | -117.04032 | 28618 ft | 456 kts | 53° |
| 2026-05-08 07:03 | 34.75540 | -117.00885 | 28876 ft | 457 kts | 53° |
| 2026-05-08 07:04 | 34.77982 | -116.96722 | 29347 ft | 455 kts | 53° |
| 2026-05-08 07:04 | 34.79817 | -116.93595 | 29690 ft | 454 kts | 53° |
| 2026-05-08 07:04 | 34.81057 | -116.91481 | 29934 ft | 453 kts | 53° |
| 2026-05-08 07:04 | 34.82885 | -116.88358 | 30252 ft | 452 kts | 53° |
| 2026-05-08 07:05 | 34.84710 | -116.85240 | 30545 ft | 451 kts | 53° |
| 2026-05-08 07:05 | 34.86501 | -116.82174 | 30836 ft | 450 kts | 53° |
| 2026-05-08 07:05 | 34.88313 | -116.79066 | 31121 ft | 449 kts | 53° |
| 2026-05-08 07:05 | 34.90120 | -116.75968 | 31411 ft | 448 kts | 53° |
| 2026-05-08 07:06 | 34.91955 | -116.72902 | 31695 ft | 446 kts | 49° |
| 2026-05-08 07:06 | 34.94024 | -116.70094 | 31968 ft | 445 kts | 46° |
| 2026-05-08 07:06 | 34.96129 | -116.67333 | 32230 ft | 444 kts | 46° |
| 2026-05-08 07:06 | 34.98230 | -116.64573 | 32487 ft | 444 kts | 46° |
| 2026-05-08 07:07 | 35.00327 | -116.61813 | 32742 ft | 443 kts | 46° |
| 2026-05-08 07:07 | 35.02419 | -116.59055 | 33000 ft | 442 kts | 46° |
| 2026-05-08 07:07 | 35.04507 | -116.56300 | 33264 ft | 442 kts | 46° |
| 2026-05-08 07:07 | 35.06593 | -116.53544 | 33546 ft | 441 kts | 46° |
| 2026-05-08 07:08 | 35.08673 | -116.50795 | 33821 ft | 441 kts | 46° |
| 2026-05-08 07:08 | 35.10752 | -116.48045 | 34076 ft | 440 kts | 46° |
| 2026-05-08 07:08 | 35.12830 | -116.45295 | 34312 ft | 440 kts | 46° |
| 2026-05-08 07:08 | 35.14901 | -116.42554 | 34534 ft | 439 kts | 46° |
| 2026-05-08 07:09 | 35.16949 | -116.39843 | 34740 ft | 439 kts | 46° |
| 2026-05-08 07:09 | 35.19019 | -116.37103 | 34901 ft | 439 kts | 46° |
| 2026-05-08 07:09 | 35.23179 | -116.31575 | 34934 ft | 443 kts | 46° |
| 2026-05-08 07:10 | 35.27343 | -116.26021 | 34921 ft | 443 kts | 46° |
| 2026-05-08 07:10 | 35.31512 | -116.20467 | 34906 ft | 443 kts | 46° |
| 2026-05-08 07:11 | 35.35687 | -116.14914 | 34904 ft | 443 kts | 46° |
| 2026-05-08 07:11 | 35.39855 | -116.09351 | 34914 ft | 443 kts | 46° |
| 2026-05-08 07:12 | 35.44012 | -116.03771 | 34928 ft | 443 kts | 46° |
| 2026-05-08 07:12 | 35.48176 | -115.98185 | 34938 ft | 443 kts | 46° |
| 2026-05-08 07:13 | 35.52341 | -115.92597 | 34937 ft | 443 kts | 46° |
| 2026-05-08 07:13 | 35.56475 | -115.87037 | 34946 ft | 443 kts | 46° |
| 2026-05-08 07:14 | 35.60639 | -115.81418 | 34961 ft | 444 kts | 46° |
| 2026-05-08 07:14 | 35.64793 | -115.75794 | 34966 ft | 444 kts | 46° |
| 2026-05-08 07:15 | 35.68914 | -115.70141 | 34967 ft | 444 kts | 47° |
| 2026-05-08 07:15 | 35.73018 | -115.64469 | 34983 ft | 444 kts | 47° |
| 2026-05-08 07:16 | 35.77130 | -115.58793 | 34980 ft | 444 kts | 46° |
| 2026-05-08 07:16 | 35.81245 | -115.53117 | 34980 ft | 444 kts | 46° |
| 2026-05-08 07:17 | 35.85356 | -115.47437 | 34985 ft | 444 kts | 47° |
| 2026-05-08 07:17 | 35.89464 | -115.41747 | 34988 ft | 444 kts | 46° |
| 2026-05-08 07:18 | 35.93570 | -115.36047 | 34992 ft | 444 kts | 46° |
| 2026-05-08 07:18 | 35.97650 | -115.30376 | 34995 ft | 444 kts | 46° |
| 2026-05-08 07:19 | 36.01757 | -115.24661 | 35000 ft | 444 kts | 47° |
| 2026-05-08 07:19 | 36.05857 | -115.18937 | 34966 ft | 444 kts | 46° |
| 2026-05-08 07:20 | 36.09697 | -115.12938 | 34967 ft | 446 kts | 53° |
| 2026-05-08 07:20 | 36.13233 | -115.06643 | 34968 ft | 445 kts | 53° |
| 2026-05-08 07:21 | 36.16766 | -115.00343 | 34913 ft | 445 kts | 53° |
| 2026-05-08 07:21 | 36.20293 | -114.94040 | 34910 ft | 445 kts | 53° |
| 2026-05-08 07:22 | 36.23820 | -114.87727 | 34903 ft | 445 kts | 53° |
| 2026-05-08 07:22 | 36.27344 | -114.81428 | 34898 ft | 445 kts | 53° |
| 2026-05-08 07:23 | 36.30860 | -114.75119 | 34885 ft | 444 kts | 53° |
| 2026-05-08 07:23 | 36.34340 | -114.68848 | 34869 ft | 444 kts | 53° |
| 2026-05-08 07:24 | 36.37844 | -114.62528 | 34849 ft | 443 kts | 53° |
| 2026-05-08 07:24 | 36.41341 | -114.56225 | 34854 ft | 443 kts | 53° |
| 2026-05-08 07:25 | 36.44841 | -114.49914 | 34854 ft | 443 kts | 53° |
| 2026-05-08 07:26 | 36.50057 | -114.40444 | 34854 ft | 442 kts | 53° |
| 2026-05-08 07:26 | 36.53534 | -114.34134 | 34857 ft | 442 kts | 52° |
| 2026-05-08 07:27 | 36.56985 | -114.27861 | 34861 ft | 442 kts | 53° |
| 2026-05-08 07:27 | 36.60447 | -114.21543 | 34865 ft | 441 kts | 53° |
| 2026-05-08 07:28 | 36.63893 | -114.15224 | 34875 ft | 441 kts | 53° |
| 2026-05-08 07:28 | 36.67341 | -114.08905 | 34879 ft | 441 kts | 52° |
| 2026-05-08 07:29 | 36.70795 | -114.02587 | 34878 ft | 441 kts | 52° |
| 2026-05-08 07:29 | 36.74245 | -113.96266 | 34882 ft | 440 kts | 52° |
| 2026-05-08 07:30 | 36.77686 | -113.89940 | 34880 ft | 440 kts | 52° |